createdAt,value
2022-09-28T00:02:28.853Z,8.30
2022-09-28T00:07:31.313Z,8.00
2022-09-28T00:12:33.814Z,8.00
2022-09-28T00:17:36.495Z,8.10
2022-09-28T00:22:39.138Z,8.00
2022-09-28T00:27:41.483Z,8.00
2022-09-28T00:32:43.903Z,7.70
2022-09-28T00:37:48.911Z,7.80
2022-09-28T00:42:51.454Z,7.80
2022-09-28T00:47:58.089Z,7.70
2022-09-28T00:53:21.007Z,7.60
2022-09-28T00:58:30.188Z,7.60
2022-09-28T01:03:33.736Z,7.40
2022-09-28T01:08:37.309Z,7.40
2022-09-28T01:13:41.247Z,7.20
2022-09-28T01:19:02.375Z,7.20
2022-09-28T01:24:17.487Z,7.10
2022-09-28T01:29:24.946Z,7.00
2022-09-28T01:34:35.857Z,6.90
2022-09-28T01:39:44.159Z,7.00
2022-09-28T01:44:51.906Z,6.90
2022-09-28T01:50:07.307Z,6.80
2022-09-28T01:55:31.241Z,6.80
2022-09-28T02:00:36.105Z,6.70
2022-09-28T02:05:48.945Z,6.90
2022-09-28T02:11:02.158Z,6.70
2022-09-28T02:16:31.339Z,6.60
2022-09-28T02:21:59.295Z,6.60
2022-09-28T02:27:14.644Z,6.60
2022-09-28T02:32:20.179Z,6.60
2022-09-28T02:37:22.710Z,6.50
2022-09-28T02:42:29.454Z,6.50
2022-09-28T02:47:54.977Z,6.50
2022-09-28T02:53:12.853Z,6.50
2022-09-28T02:58:15.127Z,6.50
2022-09-28T03:03:52.734Z,6.50
2022-09-28T03:09:03.277Z,6.40
2022-09-28T03:14:09.978Z,6.40
2022-09-28T03:19:28.031Z,6.50
2022-09-28T03:24:30.482Z,6.30
2022-09-28T03:29:34.460Z,6.20
2022-09-28T03:34:40.404Z,6.20
2022-09-28T03:39:42.906Z,6.10
2022-09-28T03:44:45.286Z,6.10
2022-09-28T03:49:48.126Z,6.00
2022-09-28T03:54:50.515Z,6.00
2022-09-28T03:59:52.834Z,6.00
2022-09-28T04:04:55.420Z,5.90
2022-09-28T04:09:57.850Z,6.00
2022-09-28T04:15:00.442Z,5.90
2022-09-28T04:20:03.777Z,5.90
2022-09-28T04:25:19.308Z,5.90
2022-09-28T04:30:22.059Z,6.10
2022-09-28T04:35:24.524Z,6.00
2022-09-28T04:40:27.063Z,6.00
2022-09-28T04:45:29.785Z,6.30
2022-09-28T04:50:38.839Z,6.20
2022-09-28T04:55:42.185Z,6.30
2022-09-28T05:00:44.698Z,6.40
2022-09-28T05:06:10.322Z,6.40
2022-09-28T05:11:19.898Z,6.70
2022-09-28T05:16:22.344Z,6.70
2022-09-28T05:21:46.060Z,6.70
2022-09-28T05:26:48.534Z,6.90
2022-09-28T05:31:50.974Z,6.90
2022-09-28T05:37:02.414Z,7.00
2022-09-28T05:42:07.495Z,7.10
2022-09-28T05:47:10.462Z,7.10
2022-09-28T05:52:13.124Z,7.20
2022-09-28T05:57:15.854Z,7.40
2022-09-28T06:02:18.505Z,7.60
2022-09-28T06:07:22.002Z,7.80
2022-09-28T06:12:24.939Z,8.00
2022-09-28T06:17:30.696Z,7.90
2022-09-28T06:22:54.214Z,7.90
2022-09-28T06:28:05.338Z,7.90
2022-09-28T06:33:10.903Z,8.00
2022-09-28T06:38:13.612Z,8.30
2022-09-28T06:43:16.173Z,8.50
2022-09-28T06:48:38.150Z,8.70
2022-09-28T06:53:43.999Z,9.10
2022-09-28T06:59:06.612Z,9.30
2022-09-28T07:04:10.521Z,9.60
2022-09-28T07:09:33.559Z,9.80
2022-09-28T07:14:48.385Z,10.10
2022-09-28T07:19:52.749Z,10.40
2022-09-28T07:24:55.499Z,10.80
2022-09-28T07:30:16.551Z,10.90
2022-09-28T07:35:39.412Z,11.40
2022-09-28T07:41:00.388Z,11.50
2022-09-28T07:46:02.981Z,11.40
2022-09-28T07:51:05.795Z,11.30
2022-09-28T07:56:12.008Z,11.30
2022-09-28T08:01:31.017Z,11.10
2022-09-28T08:06:34.525Z,11.30
2022-09-28T08:11:38.756Z,11.60
2022-09-28T08:16:58.384Z,11.60
2022-09-28T08:22:12.587Z,12.00
2022-09-28T08:27:17.266Z,11.80
2022-09-28T08:32:20.051Z,12.10
2022-09-28T08:37:57.282Z,12.40
2022-09-28T08:44:01.285Z,12.90
2022-09-28T08:49:25.542Z,13.30
2022-09-28T08:54:58.971Z,13.60
2022-09-28T09:00:10.963Z,13.20
2022-09-28T09:05:20.836Z,13.40
2022-09-28T09:11:01.238Z,13.60
2022-09-28T09:16:32.252Z,14.00
2022-09-28T09:22:31.757Z,14.40
2022-09-28T09:27:55.830Z,14.20
2022-09-28T09:33:39.624Z,14.30
2022-09-28T09:39:18.279Z,14.40
2022-09-28T09:44:53.870Z,14.80
2022-09-28T09:50:25.334Z,15.00
2022-09-28T09:55:36.460Z,14.20
2022-09-28T10:00:56.259Z,14.30
2022-09-28T10:06:30.225Z,14.40
2022-09-28T10:11:49.977Z,15.10
2022-09-28T10:16:55.638Z,14.80
2022-09-28T10:22:20.791Z,15.40
2022-09-28T10:27:33.735Z,14.90
2022-09-28T10:32:45.165Z,14.60
2022-09-28T10:38:03.345Z,14.20
2022-09-28T10:43:38.704Z,14.40
2022-09-28T10:48:47.044Z,14.50
2022-09-28T10:54:17.108Z,14.30
2022-09-28T10:59:29.869Z,14.80
2022-09-28T11:05:01.950Z,14.50
2022-09-28T11:10:23.779Z,14.20
2022-09-28T11:15:31.378Z,14.00
2022-09-28T11:20:36.005Z,14.30
2022-09-28T11:25:41.262Z,14.60
2022-09-28T11:30:49.993Z,14.80
2022-09-28T11:36:41.676Z,15.00
2022-09-28T11:41:53.224Z,15.00
2022-09-28T11:47:23.820Z,15.00
2022-09-28T11:52:54.452Z,14.80
2022-09-28T11:58:22.485Z,14.90
2022-09-28T12:03:40.948Z,14.70
2022-09-28T12:08:49.468Z,14.80
2022-09-28T12:14:34.680Z,14.60
2022-09-28T12:19:46.646Z,14.70
2022-09-28T12:24:52.826Z,14.70
2022-09-28T12:29:55.152Z,14.10
2022-09-28T12:34:57.962Z,14.30
2022-09-28T12:40:18.442Z,14.10
2022-09-28T12:46:09.727Z,14.00
2022-09-28T12:51:14.737Z,13.80
2022-09-28T12:56:57.847Z,13.70
2022-09-28T13:02:25.027Z,13.70
2022-09-28T13:07:49.913Z,13.50
2022-09-28T13:13:05.276Z,13.60
2022-09-28T13:18:07.555Z,13.60
2022-09-28T13:23:22.365Z,12.90
2022-09-28T13:28:27.369Z,12.40
2022-09-28T13:33:35.765Z,12.10
2022-09-28T13:38:47.512Z,11.90
2022-09-28T13:44:12.374Z,11.80
2022-09-28T13:49:37.254Z,11.60
2022-09-28T13:55:05.943Z,11.50
2022-09-28T14:00:11.614Z,11.80
2022-09-28T14:05:22.936Z,11.40
2022-09-28T14:10:50.840Z,11.20
2022-09-28T14:15:53.921Z,11.00
2022-09-28T14:21:25.699Z,11.00
2022-09-28T14:26:55.810Z,10.80
2022-09-28T14:32:04.704Z,10.60
2022-09-28T14:37:43.967Z,10.60
2022-09-28T14:43:24.588Z,10.60
2022-09-28T14:49:25.584Z,10.70
2022-09-28T14:54:46.981Z,10.90
2022-09-28T14:59:49.587Z,10.90
2022-09-28T15:05:02.560Z,10.80
2022-09-28T15:10:35.066Z,11.00
2022-09-28T15:15:41.131Z,10.80
2022-09-28T15:20:49.025Z,11.20
2022-09-28T15:25:55.308Z,11.10
2022-09-28T15:31:03.354Z,11.40
2022-09-28T15:36:07.394Z,11.30
2022-09-28T15:41:11.207Z,11.30
2022-09-28T15:46:21.174Z,11.30
2022-09-28T15:51:24.611Z,11.30
2022-09-28T15:56:28.261Z,11.20
2022-09-28T16:01:42.236Z,11.30
2022-09-28T16:06:44.663Z,11.00
2022-09-28T16:11:49.835Z,11.00
2022-09-28T16:16:53.269Z,10.70
2022-09-28T16:21:58.166Z,10.50
2022-09-28T16:27:07.175Z,10.70
2022-09-28T16:32:34.048Z,10.30
2022-09-28T16:37:36.849Z,10.30
2022-09-28T16:42:48.067Z,10.30
2022-09-28T16:47:54.980Z,10.20
2022-09-28T16:53:19.747Z,10.20
2022-09-28T16:58:22.647Z,10.10
2022-09-28T17:03:26.024Z,10.10
2022-09-28T17:08:28.529Z,10.10
2022-09-28T17:13:34.631Z,10.10
2022-09-28T17:18:39.244Z,10.20
2022-09-28T17:23:42.890Z,10.20
2022-09-28T17:28:45.283Z,10.10
2022-09-28T17:33:47.720Z,10.20
2022-09-28T17:38:51.785Z,10.20
2022-09-28T17:43:54.120Z,10.10
2022-09-28T17:48:59.568Z,10.20
2022-09-28T17:54:02.626Z,10.20
2022-09-28T17:59:07.430Z,10.20
2022-09-28T18:04:33.321Z,10.30
2022-09-28T18:09:36.386Z,10.30
2022-09-28T18:14:39.949Z,10.10
2022-09-28T18:19:42.309Z,10.20
2022-09-28T18:24:44.988Z,10.40
2022-09-28T18:29:47.276Z,10.30
2022-09-28T18:34:49.683Z,10.20
2022-09-28T18:39:52.449Z,10.30
2022-09-28T18:44:54.795Z,10.20
2022-09-28T18:49:58.592Z,10.20
2022-09-28T18:55:00.898Z,10.20
2022-09-28T19:00:06.842Z,10.10
2022-09-28T19:05:09.718Z,10.10
2022-09-28T19:10:12.122Z,10.10
2022-09-28T19:15:14.571Z,10.10
2022-09-28T19:20:17.335Z,10.10
2022-09-28T19:25:19.944Z,10.10
2022-09-28T19:30:22.321Z,10.00
2022-09-28T19:35:24.637Z,9.90
2022-09-28T19:40:27.025Z,9.90
2022-09-28T19:45:29.473Z,9.90
2022-09-28T19:50:32.317Z,9.90
2022-09-28T19:55:36.308Z,9.90
2022-09-28T20:00:38.689Z,9.70
2022-09-28T20:05:42.432Z,9.70
2022-09-28T20:10:52.487Z,9.70
2022-09-28T20:15:56.449Z,9.80
2022-09-28T20:21:06.548Z,9.60
2022-09-28T20:26:12.418Z,9.60
2022-09-28T20:31:17.974Z,9.60
2022-09-28T20:36:25.307Z,9.60
2022-09-28T20:41:28.213Z,9.50
2022-09-28T20:46:30.713Z,9.50
2022-09-28T20:51:33.393Z,9.60
2022-09-28T20:56:39.296Z,9.70
2022-09-28T21:01:41.834Z,9.60
2022-09-28T21:06:44.476Z,9.50
2022-09-28T21:11:48.148Z,9.40
2022-09-28T21:16:59.556Z,9.60
2022-09-28T21:22:01.850Z,9.40
2022-09-28T21:27:04.731Z,9.60
2022-09-28T21:32:08.247Z,9.50
2022-09-28T21:37:10.629Z,9.30
2022-09-28T21:42:12.898Z,9.30
2022-09-28T21:47:15.273Z,9.10
2022-09-28T21:52:18.168Z,9.10
2022-09-28T21:57:20.464Z,8.90
2022-09-28T22:02:23.215Z,8.90
2022-09-28T22:07:25.715Z,9.00
2022-09-28T22:12:29.813Z,8.80
2022-09-28T22:17:32.265Z,8.80
2022-09-28T22:22:34.952Z,8.80
2022-09-28T22:27:39.037Z,8.60
2022-09-28T22:32:41.394Z,8.80
2022-09-28T22:37:43.654Z,8.70
2022-09-28T22:42:46.016Z,8.70
2022-09-28T22:47:48.343Z,8.70
2022-09-28T22:52:51.104Z,8.80
2022-09-28T22:57:53.554Z,8.90
2022-09-28T23:02:55.874Z,9.00
2022-09-28T23:07:58.272Z,9.00
2022-09-28T23:13:00.638Z,8.90
2022-09-28T23:18:02.956Z,8.90
2022-09-28T23:23:05.471Z,8.90
2022-09-28T23:28:08.112Z,8.90
2022-09-28T23:33:15.230Z,8.90
2022-09-28T23:38:18.311Z,9.10
2022-09-28T23:43:20.888Z,9.00
2022-09-28T23:48:23.252Z,9.00
2022-09-28T23:53:25.821Z,9.00
2022-09-28T23:58:28.258Z,9.00
